Autoridad de Aeronautica Civil de Panamá


metar




ESTACIONES DESCRIPCION
MPTO (S) 132220Z 02004KT 3200 + TSRA SCT008 BKN014CB 25/24 Q1009 RWY WATER PATCHES TEMPO 5000 TSRA RMK TS NW-NE/E-SE/ST ALQDS=  
MPBO (M)  
MPCH (M) 132300Z 00000KT 9999 FEW020 SCT080 28/22 Q1012  
MPSA (M) 132300Z 21004KT 9000 VCSH SCT012TCU BKN080 27/24 Q1009 RMK TCU NE/SE PCPNSE/NE=  
MPCE (M) 132300Z 30010KT 9000 VCSH SCT012CB BKN090 28/// Q1007 RMK CB SW PCPN S-W=  
MPPN (M) 132300Z 35008KT(E) 9000 VCSH SCT015TCU BKN090 RMK TCU N-E/S-W-SW=  
MPSM (M) 132300Z 31003KT(E) 9999 FEW020 BKN080 26/24 Q1009  
MPJE FUERA DE SERVICIO  
MPPA (M) 132300Z 04005KT 9999 SCT017 SCT070 27/24 Q1009=  
MPMG (M) 132300Z 33006KT 8000 VCSH FEW010 SCT016CB SCT090 27/24 Q1010 TEMPO 6000 TSRA RMK CB/PCPN NE-SE ST N/E/SE  
MPDA (M) 132300Z VRB02KT 9000 DZ SCT015 SCT090 24/23 Q1010 RWY WET RMK ST N-NE  
MPVR (M) 132300Z NIL=  
MPWN FUERA DE SERVICIO  
MPOA (M)  
MPMF (M)  
MPEJ (M) 132300Z 00000KT 9999 FEW020 25/// Q////=  


 

CLIMATICAS

MPTO

12 Noviembre 2019

 

PCPN (mm)

T° MAX

T° MIN

VIENTO MAX (KT)

HORA

VIENTO PREDOM (KT)

4.5

29.9

22.8

058011G26KT

1625Z

W 06

CLIMATICAS

MPMG

12- NOVIEMBRE -2019

PCPN (mm)

T° MAX

T° MIN

VIENTO MAX (KT)

HORA

VIENTO PREDOM (KT)-

22.5

29.5

24.2

06010G22KT

1700Z

NW

 



Contador: 7497